createdAt,value
2018-08-16T00:01:10.673Z,57.34
2018-08-16T00:03:38.719Z,57.41
2018-08-16T00:06:06.767Z,57.02
2018-08-16T00:08:35.156Z,57.74
2018-08-16T00:11:03.202Z,57.37
2018-08-16T00:13:31.248Z,57.47
2018-08-16T00:15:59.450Z,57.63
2018-08-16T00:18:27.904Z,57.25
2018-08-16T00:20:56.012Z,57.31
2018-08-16T00:23:24.071Z,57.74
2018-08-16T00:25:52.136Z,57.60
2018-08-16T00:28:20.236Z,57.95
2018-08-16T00:30:48.316Z,57.66
2018-08-16T00:33:16.424Z,57.68
2018-08-16T00:35:44.482Z,57.73
2018-08-16T00:38:12.570Z,57.10
2018-08-16T00:40:40.851Z,58.05
2018-08-16T00:43:08.927Z,57.39
2018-08-16T00:45:37.138Z,57.71
2018-08-16T00:48:05.225Z,57.66
2018-08-16T00:50:33.286Z,57.26
2018-08-16T00:53:01.347Z,57.67
2018-08-16T00:55:29.442Z,57.76
2018-08-16T00:57:57.884Z,57.83
2018-08-16T01:00:25.980Z,58.01
2018-08-16T01:02:54.155Z,57.40
2018-08-16T01:05:22.281Z,57.71
2018-08-16T01:07:50.319Z,57.98
2018-08-16T01:10:18.489Z,57.67
2018-08-16T01:12:46.644Z,57.90
2018-08-16T01:15:16.282Z,57.75
2018-08-16T01:17:44.366Z,58.33
2018-08-16T01:20:12.449Z,58.27
2018-08-16T01:22:40.567Z,57.95
2018-08-16T01:25:09.745Z,58.28
2018-08-16T01:27:38.199Z,57.94
2018-08-16T01:30:07.578Z,58.12
2018-08-16T01:32:35.705Z,58.81
2018-08-16T01:35:04.140Z,58.81
2018-08-16T01:37:32.198Z,59.03
2018-08-16T01:40:00.265Z,58.29
2018-08-16T01:42:28.333Z,58.31
2018-08-16T01:44:56.564Z,59.00
2018-08-16T01:47:24.654Z,59.16
2018-08-16T01:49:52.705Z,58.69
2018-08-16T01:52:21.055Z,58.89
2018-08-16T01:54:49.111Z,58.95
2018-08-16T01:57:17.167Z,59.15
2018-08-16T01:59:45.282Z,59.08
2018-08-16T02:02:13.387Z,59.85
2018-08-16T02:04:41.469Z,60.24
2018-08-16T02:07:09.567Z,59.59
2018-08-16T02:09:37.662Z,60.19
2018-08-16T02:12:06.023Z,60.68
2018-08-16T02:14:34.440Z,59.91
2018-08-16T02:17:02.508Z,60.62
2018-08-16T02:19:30.623Z,61.34
2018-08-16T02:21:58.689Z,60.60
2018-08-16T02:24:26.755Z,61.10
2018-08-16T02:26:54.829Z,61.09
2018-08-16T02:29:22.896Z,61.76
2018-08-16T02:31:50.969Z,61.38
2018-08-16T02:34:19.040Z,62.36
2018-08-16T02:36:47.087Z,61.91
2018-08-16T02:39:15.169Z,62.68
2018-08-16T02:41:43.215Z,62.02
2018-08-16T02:44:11.290Z,62.98
2018-08-16T02:46:39.374Z,63.38
2018-08-16T02:49:07.474Z,62.71
2018-08-16T02:51:35.533Z,62.82
2018-08-16T02:54:03.647Z,63.08
2018-08-16T02:56:31.746Z,63.78
2018-08-16T02:58:59.813Z,63.74
2018-08-16T03:01:27.892Z,64.33
2018-08-16T03:03:56.040Z,63.91
2018-08-16T03:06:24.120Z,64.03
2018-08-16T03:08:58.583Z,65.08
2018-08-16T03:11:26.754Z,64.33
2018-08-16T03:13:54.822Z,64.51
2018-08-16T03:16:22.914Z,65.24
2018-08-16T03:18:50.985Z,64.96
2018-08-16T03:21:19.072Z,66.44
2018-08-16T03:23:47.147Z,66.69
2018-08-16T03:26:15.212Z,66.37
2018-08-16T03:28:43.282Z,66.07
2018-08-16T03:31:11.409Z,66.69
2018-08-16T03:33:39.517Z,66.92
2018-08-16T03:36:07.598Z,66.87
2018-08-16T03:38:35.665Z,66.59
2018-08-16T03:41:03.749Z,66.89
2018-08-16T03:43:37.458Z,66.87
2018-08-16T03:46:05.519Z,67.16
2018-08-16T03:48:33.609Z,67.24
2018-08-16T03:51:01.700Z,67.01
2018-08-16T03:53:29.988Z,67.65
2018-08-16T03:55:58.063Z,67.10
2018-08-16T03:58:26.124Z,67.02
2018-08-16T04:00:54.206Z,67.19
2018-08-16T04:03:22.315Z,67.50
2018-08-16T04:05:50.415Z,68.17
2018-08-16T04:08:18.493Z,67.99
2018-08-16T04:10:46.579Z,68.12
2018-08-16T04:13:14.981Z,68.61
2018-08-16T04:15:43.056Z,68.10
2018-08-16T04:18:11.129Z,68.44
2018-08-16T04:20:39.221Z,69.23
2018-08-16T04:23:07.308Z,68.52
2018-08-16T04:25:35.380Z,68.50
2018-08-16T04:28:03.694Z,68.50
2018-08-16T04:30:31.805Z,68.69
2018-08-16T04:35:34.627Z,69.20
2018-08-16T04:38:02.683Z,69.06
2018-08-16T04:40:30.752Z,69.05
2018-08-16T04:42:58.832Z,69.48
2018-08-16T04:45:26.919Z,70.25
2018-08-16T04:47:55.035Z,69.04
2018-08-16T04:50:23.226Z,68.73
2018-08-16T04:52:51.311Z,67.12
2018-08-16T04:55:19.445Z,66.38
2018-08-16T04:57:47.527Z,66.34
2018-08-16T05:00:15.653Z,65.32
2018-08-16T05:02:43.733Z,64.01
2018-08-16T05:05:11.818Z,63.19
2018-08-16T05:07:39.947Z,61.34
2018-08-16T05:10:09.409Z,61.35
2018-08-16T05:12:37.509Z,60.03
2018-08-16T05:15:08.159Z,59.57
2018-08-16T05:17:36.241Z,58.76
2018-08-16T05:20:06.141Z,58.05
2018-08-16T05:22:34.236Z,56.30
2018-08-16T05:25:02.342Z,55.72
2018-08-16T05:27:30.427Z,54.18
2018-08-16T05:29:58.542Z,52.97
2018-08-16T05:32:27.431Z,52.55
2018-08-16T05:34:55.532Z,53.01
2018-08-16T05:37:23.603Z,51.81
2018-08-16T05:39:51.700Z,49.99
2018-08-16T05:42:19.865Z,48.95
2018-08-16T05:44:47.962Z,50.58
2018-08-16T05:47:16.108Z,49.50
2018-08-16T05:49:44.230Z,49.44
2018-08-16T05:52:12.317Z,48.20
2018-08-16T05:54:40.427Z,45.88
2018-08-16T05:57:08.521Z,47.18
2018-08-16T05:59:36.602Z,44.43
2018-08-16T06:02:05.323Z,45.20
2018-08-16T06:04:33.394Z,44.21
2018-08-16T06:07:01.519Z,44.02
2018-08-16T06:09:29.656Z,43.34
2018-08-16T06:11:57.691Z,43.60
2018-08-16T06:14:26.039Z,42.88
2018-08-16T06:16:54.120Z,41.97
2018-08-16T06:19:22.189Z,42.72
2018-08-16T06:21:50.275Z,42.24
2018-08-16T06:24:18.382Z,40.72
2018-08-16T06:26:46.527Z,40.44
2018-08-16T06:29:14.637Z,40.04
2018-08-16T06:31:42.815Z,40.10
2018-08-16T06:34:10.904Z,39.77
2018-08-16T06:36:38.980Z,39.20
2018-08-16T06:39:09.496Z,39.60
2018-08-16T06:41:37.843Z,38.49
2018-08-16T06:44:05.914Z,38.64
2018-08-16T06:46:34.091Z,37.42
2018-08-16T06:49:02.191Z,36.87
2018-08-16T06:51:30.297Z,36.77
2018-08-16T06:53:58.404Z,35.98
2018-08-16T06:56:26.503Z,36.63
2018-08-16T06:58:54.615Z,36.22
2018-08-16T07:01:22.706Z,34.85
2018-08-16T07:03:50.828Z,34.56
2018-08-16T07:06:18.953Z,35.62
2018-08-16T07:08:47.048Z,34.26
2018-08-16T07:11:15.322Z,34.27
2018-08-16T07:13:43.379Z,34.17
2018-08-16T07:16:11.603Z,34.12
2018-08-16T07:18:39.765Z,32.95
2018-08-16T07:21:08.231Z,31.72
2018-08-16T07:23:36.336Z,31.90
2018-08-16T07:26:05.459Z,31.64
2018-08-16T07:28:33.619Z,32.02
2018-08-16T07:31:01.705Z,32.44
2018-08-16T07:33:30.127Z,32.53
2018-08-16T07:35:58.191Z,31.62
2018-08-16T07:38:26.262Z,30.92
2018-08-16T07:40:54.439Z,31.46
2018-08-16T07:43:22.515Z,30.84
2018-08-16T07:45:50.849Z,30.48
2018-08-16T07:48:18.732Z,31.47
2018-08-16T07:50:46.822Z,31.79
2018-08-16T07:53:15.275Z,31.38
2018-08-16T07:55:43.476Z,31.88
2018-08-16T07:58:11.556Z,31.18
2018-08-16T08:00:39.663Z,30.95
2018-08-16T08:03:07.780Z,30.42
2018-08-16T08:05:35.892Z,30.35
2018-08-16T08:08:03.963Z,29.97
2018-08-16T08:10:32.085Z,30.35
2018-08-16T08:13:00.184Z,30.50
2018-08-16T08:15:28.323Z,30.92
2018-08-16T08:17:56.852Z,30.52
2018-08-16T08:20:24.951Z,30.82
2018-08-16T08:22:53.005Z,30.65
2018-08-16T08:25:21.113Z,30.54
2018-08-16T08:27:49.207Z,30.95
2018-08-16T08:30:17.569Z,31.16
2018-08-16T08:32:45.668Z,31.50
2018-08-16T08:35:13.789Z,30.89
2018-08-16T08:37:53.273Z,30.56
2018-08-16T08:40:21.375Z,30.47
2018-08-16T08:42:49.481Z,30.75
2018-08-16T08:45:17.595Z,31.31
2018-08-16T08:47:47.050Z,31.23
2018-08-16T08:50:15.476Z,31.13
2018-08-16T08:52:43.750Z,31.86
2018-08-16T08:55:23.181Z,31.71
2018-08-16T08:58:04.160Z,32.29
2018-08-16T09:00:32.241Z,31.92
2018-08-16T09:03:00.320Z,32.06
2018-08-16T09:05:28.395Z,33.67
2018-08-16T09:07:56.480Z,33.25
2018-08-16T09:11:19.628Z,33.27
2018-08-16T09:14:06.602Z,33.18
2018-08-16T09:16:35.947Z,33.02
2018-08-16T09:19:04.588Z,33.22
2018-08-16T09:21:33.242Z,32.89
2018-08-16T09:24:01.411Z,32.51
2018-08-16T09:26:34.796Z,32.01
2018-08-16T09:29:05.452Z,31.82
2018-08-16T09:31:45.170Z,32.37
2018-08-16T09:34:19.179Z,32.39
2018-08-16T09:36:47.275Z,32.05
2018-08-16T09:39:15.393Z,30.83
2018-08-16T09:41:43.417Z,30.85
2018-08-16T09:44:11.763Z,31.28
2018-08-16T09:47:07.844Z,30.93
2018-08-16T09:49:37.652Z,32.31
2018-08-16T09:52:06.511Z,32.62
2018-08-16T09:54:34.972Z,33.88
2018-08-16T09:57:04.160Z,34.68
2018-08-16T09:59:32.250Z,35.22
2018-08-16T10:02:00.694Z,34.53
2018-08-16T10:04:29.141Z,35.56
2018-08-16T10:06:57.412Z,35.58
2018-08-16T10:09:26.859Z,35.94
2018-08-16T10:11:55.748Z,36.87
2018-08-16T10:14:23.849Z,36.40
2018-08-16T10:16:51.976Z,37.08
2018-08-16T10:19:20.198Z,37.86
2018-08-16T10:21:48.283Z,37.87
2018-08-16T10:24:16.411Z,37.88
2018-08-16T10:26:44.483Z,38.21
2018-08-16T10:29:12.957Z,37.88
2018-08-16T10:31:41.237Z,38.90
2018-08-16T10:34:09.335Z,38.40
2018-08-16T10:36:37.427Z,38.08
2018-08-16T10:39:09.080Z,37.96
2018-08-16T10:41:37.328Z,38.33
2018-08-16T10:44:05.474Z,38.74
2018-08-16T10:46:33.551Z,39.07
2018-08-16T10:49:01.643Z,38.12
2018-08-16T10:51:30.125Z,38.16
2018-08-16T10:53:58.214Z,39.13
2018-08-16T10:56:26.440Z,38.95
2018-08-16T10:58:54.895Z,39.02
2018-08-16T11:01:23.028Z,39.08
2018-08-16T11:03:51.033Z,39.19
2018-08-16T11:06:19.447Z,38.04
2018-08-16T11:08:47.548Z,38.51
2018-08-16T11:11:15.612Z,39.08
2018-08-16T11:13:43.697Z,38.86
2018-08-16T11:16:11.831Z,38.05
2018-08-16T11:18:39.939Z,38.17
2018-08-16T11:21:08.037Z,38.12
2018-08-16T11:23:36.116Z,37.73
2018-08-16T11:26:04.216Z,38.23
2018-08-16T11:28:32.293Z,37.23
2018-08-16T11:31:00.482Z,37.58
2018-08-16T11:33:28.599Z,37.46
2018-08-16T11:35:56.693Z,37.11
2018-08-16T11:38:24.784Z,36.31
2018-08-16T11:40:52.863Z,36.81
2018-08-16T11:43:20.967Z,37.00
2018-08-16T11:45:49.079Z,38.32
2018-08-16T11:48:17.174Z,37.51
2018-08-16T11:50:45.504Z,37.40
2018-08-16T11:53:13.686Z,36.84
2018-08-16T11:55:41.770Z,37.27
2018-08-16T11:58:09.913Z,37.38
2018-08-16T12:00:37.992Z,36.95
2018-08-16T12:03:06.411Z,37.50
2018-08-16T12:05:34.493Z,37.47
2018-08-16T12:08:02.798Z,37.12
2018-08-16T12:10:30.889Z,36.94
2018-08-16T12:12:58.972Z,36.36
2018-08-16T12:15:27.116Z,37.47
2018-08-16T12:17:55.188Z,36.78
2018-08-16T12:20:23.617Z,35.85
2018-08-16T12:22:51.733Z,35.70
2018-08-16T12:25:19.864Z,35.48
2018-08-16T12:27:48.253Z,35.64
2018-08-16T12:30:16.324Z,37.18
2018-08-16T12:32:44.410Z,36.02
2018-08-16T12:35:12.532Z,36.64
2018-08-16T12:37:40.774Z,37.81
2018-08-16T12:40:09.223Z,37.26
2018-08-16T12:42:37.320Z,36.85
2018-08-16T12:45:05.787Z,35.87
2018-08-16T12:47:33.899Z,35.51
2018-08-16T12:50:01.968Z,34.62
2018-08-16T12:52:30.088Z,35.17
2018-08-16T12:54:58.588Z,35.61
2018-08-16T12:57:26.685Z,35.49
2018-08-16T12:59:54.799Z,35.41
2018-08-16T13:02:22.949Z,34.96
2018-08-16T13:04:51.100Z,35.00
2018-08-16T13:07:19.239Z,35.20
2018-08-16T13:09:47.379Z,35.15
2018-08-16T13:12:15.448Z,35.46
2018-08-16T13:14:43.719Z,35.81
2018-08-16T13:17:11.788Z,34.61
2018-08-16T13:19:39.896Z,35.29
2018-08-16T13:22:07.968Z,34.87
2018-08-16T13:24:36.045Z,34.34
2018-08-16T13:27:04.215Z,34.87
2018-08-16T13:29:32.401Z,35.21
2018-08-16T13:32:00.705Z,34.79
2018-08-16T13:34:28.744Z,35.10
2018-08-16T13:36:56.883Z,34.32
2018-08-16T13:39:25.010Z,33.84
2018-08-16T13:41:53.230Z,35.53
2018-08-16T13:44:21.313Z,35.52
2018-08-16T13:46:49.535Z,35.50
2018-08-16T13:49:17.682Z,35.42
2018-08-16T13:51:45.829Z,34.65
2018-08-16T13:54:13.887Z,34.32
2018-08-16T13:56:41.972Z,34.52
2018-08-16T13:59:10.052Z,34.79
2018-08-16T14:01:38.185Z,34.30
2018-08-16T14:04:06.600Z,35.05
2018-08-16T14:06:34.667Z,35.25
2018-08-16T14:09:02.755Z,35.02
2018-08-16T14:11:30.888Z,35.08
2018-08-16T14:13:59.116Z,34.61
2018-08-16T14:16:27.496Z,34.02
2018-08-16T14:18:55.569Z,33.94
2018-08-16T14:24:01.521Z,34.87
2018-08-16T14:26:29.612Z,33.88
2018-08-16T14:28:57.767Z,34.32
2018-08-16T14:31:26.108Z,33.54
2018-08-16T14:33:54.350Z,33.77
2018-08-16T14:36:22.592Z,34.21
2018-08-16T14:38:50.770Z,33.79
2018-08-16T14:41:18.768Z,34.23
2018-08-16T14:43:47.020Z,34.36
2018-08-16T14:46:15.145Z,35.03
2018-08-16T14:48:43.225Z,34.99
2018-08-16T14:51:11.375Z,34.93
2018-08-16T14:53:39.414Z,35.20
2018-08-16T14:56:07.663Z,33.91
2018-08-16T14:58:35.785Z,34.74
2018-08-16T15:01:04.260Z,33.58
2018-08-16T15:03:32.387Z,34.92
2018-08-16T15:06:00.533Z,34.08
2018-08-16T15:08:28.876Z,34.65
2018-08-16T15:10:56.981Z,34.59
2018-08-16T15:13:25.395Z,34.53
2018-08-16T15:15:53.510Z,34.48
2018-08-16T15:18:21.631Z,34.63
2018-08-16T15:20:49.866Z,33.34
2018-08-16T15:23:17.972Z,33.79
2018-08-16T15:25:46.233Z,34.91
2018-08-16T15:28:14.566Z,33.99
2018-08-16T15:30:42.636Z,34.06
2018-08-16T15:33:10.707Z,34.30
2018-08-16T15:35:39.096Z,34.28
2018-08-16T15:38:07.176Z,35.25
2018-08-16T15:40:35.436Z,34.25
2018-08-16T15:43:03.634Z,33.90
2018-08-16T15:45:31.747Z,34.59
2018-08-16T15:47:59.922Z,34.37
2018-08-16T15:50:27.984Z,33.29
2018-08-16T15:52:56.097Z,34.05
2018-08-16T15:55:24.278Z,34.41
2018-08-16T15:57:52.455Z,33.85
2018-08-16T16:00:20.616Z,34.45
2018-08-16T16:02:48.777Z,34.79
2018-08-16T16:05:16.918Z,34.22
2018-08-16T16:07:45.271Z,34.22
2018-08-16T16:10:13.346Z,34.97
2018-08-16T16:12:41.457Z,35.02
2018-08-16T16:15:10.258Z,34.72
2018-08-16T16:17:38.605Z,34.66
2018-08-16T16:20:07.053Z,35.36
2018-08-16T16:22:35.311Z,34.95
2018-08-16T16:25:03.419Z,35.45
2018-08-16T16:27:31.828Z,35.34
2018-08-16T16:29:59.924Z,34.83
2018-08-16T16:32:28.006Z,35.37
2018-08-16T16:34:56.102Z,36.22
2018-08-16T16:37:24.387Z,35.68
2018-08-16T16:39:52.898Z,36.00
2018-08-16T16:42:20.988Z,36.31
2018-08-16T16:44:49.140Z,36.75
2018-08-16T16:47:17.257Z,36.86
2018-08-16T16:52:26.579Z,37.44
2018-08-16T16:54:54.772Z,37.04
2018-08-16T16:57:22.972Z,37.55
2018-08-16T16:59:51.117Z,37.33
2018-08-16T17:02:19.187Z,37.66
2018-08-16T17:04:47.315Z,37.71
2018-08-16T17:07:15.770Z,38.65
2018-08-16T17:09:43.836Z,38.78
2018-08-16T17:12:11.934Z,38.22
2018-08-16T17:14:40.055Z,38.01
2018-08-16T17:17:08.463Z,38.11
2018-08-16T17:19:36.644Z,38.32
2018-08-16T17:22:04.728Z,38.86
2018-08-16T17:24:32.805Z,39.05
2018-08-16T17:27:01.629Z,38.78
2018-08-16T17:29:30.236Z,39.00
2018-08-16T17:31:58.355Z,39.41
2018-08-16T17:34:26.412Z,39.05
2018-08-16T17:36:54.718Z,39.03
2018-08-16T17:39:22.835Z,39.11
2018-08-16T17:41:51.253Z,39.79
2018-08-16T17:44:19.401Z,39.80
2018-08-16T17:46:47.632Z,39.34
2018-08-16T17:49:15.784Z,39.61
2018-08-16T17:51:43.929Z,39.75
2018-08-16T17:54:12.364Z,39.67
2018-08-16T17:56:40.459Z,39.98
2018-08-16T17:59:08.860Z,40.47
2018-08-16T18:01:37.014Z,40.94
2018-08-16T18:04:05.368Z,41.42
2018-08-16T18:06:33.627Z,40.93
2018-08-16T18:09:02.043Z,41.31
2018-08-16T18:11:30.372Z,41.64
2018-08-16T18:13:58.640Z,41.59
2018-08-16T18:16:26.736Z,41.36
2018-08-16T18:18:54.868Z,41.40
2018-08-16T18:21:23.131Z,41.44
2018-08-16T18:23:51.221Z,41.56
2018-08-16T18:26:19.472Z,42.24
2018-08-16T18:28:47.872Z,42.16
2018-08-16T18:31:16.067Z,42.23
2018-08-16T18:33:44.256Z,42.55
2018-08-16T18:36:12.703Z,42.77
2018-08-16T18:38:40.875Z,43.74
2018-08-16T18:41:09.273Z,44.21
2018-08-16T18:43:37.677Z,43.67
2018-08-16T18:46:06.072Z,44.77
2018-08-16T18:48:34.374Z,44.78
2018-08-16T18:51:02.494Z,45.48
2018-08-16T18:53:30.683Z,45.16
2018-08-16T18:55:58.806Z,45.48
2018-08-16T18:58:27.095Z,44.98
2018-08-16T19:00:55.228Z,46.33
2018-08-16T19:03:23.515Z,45.79
2018-08-16T19:05:51.733Z,46.44
2018-08-16T19:08:19.763Z,46.43
2018-08-16T19:10:47.858Z,47.37
2018-08-16T19:13:15.983Z,47.68
2018-08-16T19:15:44.115Z,49.10
2018-08-16T19:18:12.516Z,49.80
2018-08-16T19:20:40.613Z,50.83
2018-08-16T19:23:08.864Z,50.92
2018-08-16T19:25:36.975Z,51.68
2018-08-16T19:28:05.334Z,52.39
2018-08-16T19:30:33.443Z,52.60
2018-08-16T19:33:01.516Z,53.41
2018-08-16T19:35:29.858Z,52.40
2018-08-16T19:37:58.064Z,52.78
2018-08-16T19:40:26.406Z,53.54
2018-08-16T19:42:54.600Z,53.79
2018-08-16T19:45:22.980Z,54.13
2018-08-16T19:47:51.222Z,55.63
2018-08-16T19:50:19.272Z,54.72
2018-08-16T19:52:47.798Z,55.20
2018-08-16T19:55:15.979Z,54.37
2018-08-16T19:57:44.132Z,55.30
2018-08-16T20:00:12.233Z,55.49
2018-08-16T20:02:40.325Z,56.49
2018-08-16T20:05:08.402Z,56.17
2018-08-16T20:07:36.868Z,55.21
2018-08-16T20:10:05.971Z,55.91
2018-08-16T20:12:34.225Z,56.63
2018-08-16T20:15:02.492Z,57.13
2018-08-16T20:17:30.759Z,56.85
2018-08-16T20:19:58.909Z,56.64
2018-08-16T20:22:27.023Z,57.10
2018-08-16T20:24:56.021Z,57.42
2018-08-16T20:27:25.212Z,56.75
2018-08-16T20:29:53.513Z,56.90
2018-08-16T20:32:52.488Z,57.16
2018-08-16T20:35:20.621Z,58.30
2018-08-16T20:37:48.762Z,57.95
2018-08-16T20:40:16.858Z,56.96
2018-08-16T20:42:44.937Z,57.28
2018-08-16T20:45:13.024Z,57.71
2018-08-16T20:47:41.104Z,57.75
2018-08-16T20:50:09.187Z,57.10
2018-08-16T20:52:37.646Z,58.41
2018-08-16T20:55:05.973Z,57.96
2018-08-16T20:57:34.088Z,57.14
2018-08-16T21:00:02.169Z,57.04
2018-08-16T21:02:30.273Z,58.25
2018-08-16T21:04:58.407Z,58.90
2018-08-16T21:07:26.489Z,58.37
2018-08-16T21:09:54.596Z,57.92
2018-08-16T21:12:22.695Z,58.14
2018-08-16T21:14:50.798Z,58.45
2018-08-16T21:17:18.914Z,58.83
2018-08-16T21:19:47.052Z,58.81
2018-08-16T21:22:15.186Z,59.07
2018-08-16T21:24:43.335Z,59.30
2018-08-16T21:27:11.450Z,58.53
2018-08-16T21:29:39.553Z,58.82
2018-08-16T21:32:07.715Z,59.74
2018-08-16T21:34:35.860Z,59.67
2018-08-16T21:37:03.938Z,60.13
2018-08-16T21:39:32.045Z,59.37
2018-08-16T21:42:00.143Z,59.59
2018-08-16T21:44:28.649Z,59.84
2018-08-16T21:46:56.716Z,60.00
2018-08-16T21:49:24.801Z,60.17
2018-08-16T21:51:52.893Z,60.30
2018-08-16T21:54:20.976Z,60.48
2018-08-16T21:56:49.084Z,60.13
2018-08-16T21:59:17.141Z,60.59
2018-08-16T22:01:45.213Z,60.33
2018-08-16T22:04:13.308Z,61.52
2018-08-16T22:06:52.777Z,60.86
2018-08-16T22:09:20.892Z,60.76
2018-08-16T22:11:49.024Z,61.62
2018-08-16T22:14:17.093Z,60.90
2018-08-16T22:16:45.165Z,61.76
2018-08-16T22:19:13.277Z,61.86
2018-08-16T22:21:41.368Z,62.03
2018-08-16T22:24:09.442Z,61.49
2018-08-16T22:26:37.565Z,61.49
2018-08-16T22:29:05.720Z,62.24
2018-08-16T22:31:33.855Z,62.36
2018-08-16T22:34:01.975Z,62.20
2018-08-16T22:36:30.097Z,62.24
2018-08-16T22:38:58.133Z,62.80
2018-08-16T22:41:26.313Z,62.67
2018-08-16T22:43:54.458Z,62.60
2018-08-16T22:46:22.582Z,62.72
2018-08-16T22:48:50.641Z,62.43
2018-08-16T22:51:18.746Z,63.78
2018-08-16T22:53:46.876Z,63.72
2018-08-16T22:56:15.018Z,63.70
2018-08-16T22:58:43.084Z,63.86
2018-08-16T23:01:11.424Z,63.27
2018-08-16T23:03:39.520Z,63.76
2018-08-16T23:06:07.668Z,63.52
2018-08-16T23:08:35.757Z,64.44
2018-08-16T23:11:03.892Z,64.31
2018-08-16T23:13:32.030Z,64.50
2018-08-16T23:16:00.166Z,64.21
2018-08-16T23:18:28.274Z,64.30
2018-08-16T23:20:56.376Z,65.17
2018-08-16T23:23:24.519Z,65.32
2018-08-16T23:25:52.613Z,64.82
2018-08-16T23:28:20.678Z,65.12
2018-08-16T23:30:48.804Z,65.01
2018-08-16T23:33:16.926Z,64.96
2018-08-16T23:35:45.021Z,65.12
2018-08-16T23:38:13.117Z,65.29
2018-08-16T23:40:41.199Z,65.10
2018-08-16T23:43:09.288Z,65.60
2018-08-16T23:45:37.738Z,65.22
2018-08-16T23:48:17.361Z,65.39
2018-08-16T23:50:45.456Z,65.72
2018-08-16T23:53:13.553Z,66.23
2018-08-16T23:55:41.663Z,66.74
2018-08-16T23:58:09.774Z,66.59
